Aeroporto :
LOGIN :

Iscrizione | Disclaimer

   EN    FR    IT 

 










Sommario :    VFR   VFR Marginale   IFR   IFR Intensivo   IFR Molto Intensivo
Visibilità : 
Base nubi : 
>= 8 km
>= 3000ft
5 / 8 km
1000 / 3000 ft
1500m / 5 km
500 / 1000 ft
800 / 1500m
200 / 500 ft
< 800m
< 200 ft
Simboli :   Temporali  Nebbia  Neve Forte  Precipitazioni Forti  Vento > 20 kt
SIGMETs :   Varie  Temporali  Ghiacco  Turbolenza  Onda orograficha  Ceneri Vulcaniche






- Altitudine del aeroporto : 74 ft
- Codice IATA : EIN


EHEH - Eindhoven

ULTIMO METAR :
  • 071125Z AUTO 23010KT 190V270 9999 SCT032 OVC048 10/07 Q1013 BLU 24010KT 9999 BKN040

METARs OBSOLETI :
  • 071055Z AUTO 23008KT 210V270 9999 BKN038 OVC043 10/07 Q1013 BLU 24010KT 9999 BKN040
  • 071025Z AUTO 24011KT 200V270 9999 BKN044 OVC048 09/07 Q1013 BLU 24010KT 9999 BKN040
  • 070955Z AUTO 23010KT 200V270 9999 OVC046 09/07 Q1013 BLU 24010KT 9999 BKN040
  • 070925Z AUTO 23009KT 200V260 9999 BKN039 OVC044 09/07 Q1013 BLU 24010KT 9999 BKN040
  • 070855Z AUTO 24009KT 210V280 9999 OVC042 09/07 Q1013 BLU 24010KT 9999 SCT015 OVC018

TAF TAF EHEH
Valido dal 07 a 06 ore il 08 a 12 ore UTC


070528Z 0706/0812 25010KT 9999 SCT016 BKN020
BECMG 0710/0712 FEW022 SCT035
BECMG 0716/0718 22008KT
PROB40
TEMPO 0722/0806 SCT008 BKN012
BECMG 0801/0804 21015G25KT
BECMG 0806/0808 SCT012 BKN015
TEMPO 0807/0812 24018G28KT 3500 RA SCT006 BKN010



MetMap, La meteo Aeronautica in un colpo d'occhio ! - Copyright ORBIFLY Dicembre 2007 - Disclaimer

ORBIFLY MET'MAP TEAM :

Programmazione e sviluppo : Alexandra Zaïnal
Concezione : Baudouin d'Aumeries
Aiuto per la programmazione : Marc-Olivier Méhu
Supporto tecnico e logistico : Manuel Goepfert
Aiuto per la traduzione : Arnaldo La Scala

Contatto : metmap@orbifly.com




FONTI E CREDITI :

   NOAA